New York, NY (10109)

4:40 PM EDT on July 29, 2016 (GMT -0400)
Midtown West | | Change Station

Elev 30 ft 40.76 °N, 73.99 °W | Updated 27 seconds ago

Clear
Clear
83.1 °F
Feels Like 86 °F
N
0.0
Wind Variable Wind from NE
Gusts 0.0 mph

Today
High -- | Low -- °F
--% Chance of Precip.
Yesterday
High -- | Low -- °F
Precip. -- in
Pressure 29.84 in
Visibility 7.0 miles
Clouds Clear
Heat Index 86 °F
Dew Point 68 °F
Humidity 61%
Rainfall 0.20 in
Snow Depth Not available.
5:50 AM 8:14 PM
Waning Crescent, 19% visible
METAR KNYC 291951Z AUTO 00000KT 7SM CLR 28/20 A2987 RMK AO2 SLP104 T02780200 $
Pressure 29.84 in
Visibility 7.0 miles
Clouds Clear
Heat Index 86 °F
Dew Point 68 °F
Humidity 61%
Rainfall 0.20 in
Snow Depth Not available.
5:50 AM 8:14 PM
Waning Crescent, 19% visible
METAR KNYC 291951Z AUTO 00000KT 7SM CLR 28/20 A2987 RMK AO2 SLP104 T02780200 $

10-Day Weather Forecast

Almanac

Astronomy

Jul. 29, 2016 Rise Set
Actual Time
Civil Twilight
Nautical Twilight
Astronomical Twilight
Moon
Length of Visible Light
Length of Day
Tomorrow will be .
, % of the Moon is Illuminated

Today's Extremes

State Highs State Lows

Community

WunderPhotos

Upload Photos

1,928,407 photos uploaded!

WunderBlog® & News

Nearby

Air Quality

  Air Quality AQ Index Pollutant
Not available.

Snow Depth

Station Depth Elevation

Earthquake Activity

City Distance Mag. Time & Date
Minimum magnitude displayed is 2.5.

Coastal Water Temperatures

Place Temperature

Stations

Nearby Weather Stations

Station Location Temp. Windchill Dew Point Humidity Wind Precip. Elev Updated Type
                   

Watches & Warnings

There are currently no watches in effect.